Terminal Aerodrome Forecast
Issued by NWS

Home | Current Version | Previous Version | Text Only | Print | Product List | Glossary Off
Versions: 1 2 3 4 5 6 7 8 9 10 11 12 13

764
FTUS43 KTOP 081120
TAFMHK
TAF
KMHK 081120Z 0812/0912 23006KT P6SM SCT040 BKN080
     FM081630 34009KT P6SM BKN035
     FM090200 26005KT P6SM SCT250=

USA.gov is the U.S. government's official web portal to all federal, state and local government web resources and services.